Time;durP1;ratioP1;P1;durP2;ratioP2;P2;SDS_P1;SDS_P2;PMS_P1;PMS_P2;Temp;Humidity;BMP_temperature;BMP_pressure;BME280_temperature;BME280_humidity;BME280_pressure;Samples;Min_cycle;Max_cycle;Signal;HPM_P1;HPM_P2
2023/08/07 00:00:57;;;;;;;5.30;3.53;;;19.10;97.10;;;;;;10496967;28;20406;-68
2023/08/07 00:05:58;;;;;;;4.97;3.60;;;19.10;97.10;;;;;;10482950;28;20911;-69
2023/08/07 00:11:06;;;;;;;5.20;3.90;;;19.10;97.20;;;;;;10482110;28;20415;-69
2023/08/07 00:16:07;;;;;;;4.85;3.85;;;19.10;97.10;;;;;;10479650;28;20473;-69
2023/08/07 00:21:07;;;;;;;5.63;3.90;;;19.00;97.10;;;;;;10485692;28;20542;-68
2023/08/07 00:26:08;;;;;;;5.43;4.03;;;19.00;97.10;;;;;;10486147;28;20411;-69
2023/08/07 00:31:08;;;;;;;5.07;3.80;;;19.00;97.20;;;;;;10484091;28;20482;-68
2023/08/07 00:36:09;;;;;;;5.43;3.50;;;19.10;97.20;;;;;;10478195;28;20439;-68
2023/08/07 00:41:10;;;;;;;5.23;3.70;;;19.00;97.20;;;;;;10487688;28;20412;-68
2023/08/07 00:46:10;;;;;;;7.67;3.80;;;19.00;97.20;;;;;;10486342;28;20417;-69
2023/08/07 00:51:11;;;;;;;6.13;3.97;;;19.00;97.20;;;;;;10478324;28;20415;-70
2023/08/07 00:56:12;;;;;;;5.07;3.92;;;19.00;97.20;;;;;;10474746;28;20414;-68
2023/08/07 01:01:14;;;;;;;6.68;3.90;;;19.00;97.20;;;;;;10486151;28;20474;-69
2023/08/07 01:06:15;;;;;;;4.67;3.97;;;19.00;97.20;;;;;;10481842;28;20417;-69
2023/08/07 01:11:21;;;;;;;5.25;4.25;;;19.00;97.20;;;;;;10488443;28;20841;-69
2023/08/07 01:16:50;;;;;;;5.67;3.93;;;19.00;97.20;;;;;;10490082;28;21062;-69
2023/08/07 01:22:05;;;;;;;5.20;3.85;;;19.00;97.20;;;;;;10488018;28;20449;-69
2023/08/07 01:27:19;;;;;;;6.25;3.83;;;19.00;97.20;;;;;;10490578;28;20720;-70
2023/08/07 01:32:28;;;;;;;6.60;3.95;;;18.90;97.20;;;;;;10484305;28;20420;-69
2023/08/07 01:37:31;;;;;;;4.97;3.88;;;18.90;97.20;;;;;;10485961;28;20409;-68
2023/08/07 01:42:32;;;;;;;7.03;4.17;;;19.00;97.20;;;;;;10476114;28;20526;-68
2023/08/07 01:47:34;;;;;;;4.53;3.85;;;18.90;97.20;;;;;;10470764;28;20764;-68
2023/08/07 01:52:34;;;;;;;5.97;4.18;;;18.90;97.20;;;;;;10489276;28;20431;-69
2023/08/07 01:57:35;;;;;;;6.10;4.15;;;18.90;97.20;;;;;;10486428;28;20466;-70
2023/08/07 02:02:37;;;;;;;4.70;3.90;;;18.90;97.20;;;;;;10485122;28;20741;-69
2023/08/07 02:07:37;;;;;;;4.95;3.90;;;18.90;97.20;;;;;;10480809;28;20814;-69
2023/08/07 02:12:38;;;;;;;5.53;4.00;;;18.90;97.20;;;;;;10475039;28;20407;-69
2023/08/07 02:17:40;;;;;;;5.33;4.10;;;18.90;97.20;;;;;;10476809;28;20626;-68
2023/08/07 02:22:41;;;;;;;6.82;4.15;;;18.90;97.20;;;;;;10485022;28;20401;-69
2023/08/07 02:27:44;;;;;;;5.23;3.97;;;18.90;97.20;;;;;;10483557;28;20442;-68
2023/08/07 02:32:46;;;;;;;5.30;3.97;;;18.90;97.20;;;;;;10475039;28;20782;-69
2023/08/07 02:37:46;;;;;;;5.28;3.88;;;18.90;97.20;;;;;;10479985;28;20431;-68
2023/08/07 02:42:47;;;;;;;5.53;3.70;;;18.90;97.20;;;;;;10478231;28;20758;-68
2023/08/07 02:47:48;;;;;;;5.63;3.80;;;18.90;97.20;;;;;;10472509;28;20409;-68
2023/08/07 02:52:48;;;;;;;4.93;3.70;;;18.90;97.20;;;;;;10486505;28;20423;-68
2023/08/07 02:57:49;;;;;;;4.57;3.67;;;18.80;97.20;;;;;;10482713;28;20439;-69
2023/08/07 03:02:50;;;;;;;5.20;3.88;;;18.80;97.10;;;;;;10503973;28;20433;-69
2023/08/07 03:07:51;;;;;;;5.27;3.70;;;18.80;97.10;;;;;;10485701;28;20960;-69
2023/08/07 03:12:51;;;;;;;5.67;3.80;;;18.80;97.10;;;;;;10489332;28;20762;-68
2023/08/07 03:17:52;;;;;;;4.83;3.77;;;18.80;97.10;;;;;;10489285;28;20416;-68
2023/08/07 03:22:52;;;;;;;6.10;3.80;;;18.80;97.10;;;;;;10492297;28;20433;-68
2023/08/07 03:27:53;;;;;;;6.40;4.00;;;18.80;97.10;;;;;;10494237;28;20472;-68
2023/08/07 03:32:54;;;;;;;5.23;3.73;;;18.80;97.10;;;;;;10486207;28;20420;-68
2023/08/07 03:37:54;;;;;;;6.72;3.72;;;18.80;97.10;;;;;;10493455;28;20406;-69
2023/08/07 03:42:55;;;;;;;5.20;3.53;;;18.70;97.10;;;;;;10490082;28;20975;-68
2023/08/07 03:47:55;;;;;;;6.40;3.73;;;18.80;97.10;;;;;;10498765;28;20479;-68
2023/08/07 03:52:56;;;;;;;6.50;4.00;;;18.80;97.10;;;;;;10486636;28;20982;-68
2023/08/07 03:57:57;;;;;;;6.37;3.60;;;18.70;97.10;;;;;;10496980;28;20401;-68
2023/08/07 04:02:57;;;;;;;7.50;4.00;;;18.70;97.10;;;;;;10495763;28;20787;-68
2023/08/07 04:07:58;;;;;;;5.93;3.60;;;18.70;97.10;;;;;;10491161;28;20417;-69
2023/08/07 04:12:59;;;;;;;5.13;3.53;;;18.70;97.10;;;;;;10482261;28;20476;-68
2023/08/07 04:17:59;;;;;;;4.70;3.35;;;18.70;97.10;;;;;;10489394;28;20501;-68
2023/08/07 04:23:00;;;;;;;5.50;3.57;;;18.70;97.10;;;;;;10485583;28;20530;-68
2023/08/07 04:28:00;;;;;;;6.17;3.43;;;18.70;97.10;;;;;;10484273;28;20411;-68
2023/08/07 04:33:02;;;;;;;7.20;3.63;;;18.70;97.10;;;;;;10483988;28;20904;-68
2023/08/07 04:38:03;;;;;;;5.55;3.47;;;18.70;97.10;;;;;;10482523;28;20399;-69
2023/08/07 04:43:03;;;;;;;6.00;3.53;;;18.70;97.10;;;;;;10499591;28;20425;-68
2023/08/07 04:48:04;;;;;;;6.07;3.60;;;18.70;97.00;;;;;;10482506;28;20955;-69
2023/08/07 04:53:05;;;;;;;5.45;3.30;;;18.70;97.00;;;;;;10471558;28;20906;-68
2023/08/07 04:58:06;;;;;;;5.25;3.75;;;18.70;97.00;;;;;;10494259;28;20398;-69
2023/08/07 05:03:06;;;;;;;6.27;3.60;;;18.70;97.10;;;;;;10478975;28;20939;-69
2023/08/07 05:08:07;;;;;;;5.97;3.53;;;18.70;97.20;;;;;;10484349;28;20421;-69
2023/08/07 05:13:08;;;;;;;5.43;3.47;;;18.70;97.10;;;;;;10476533;28;20476;-68
2023/08/07 05:18:08;;;;;;;4.97;3.60;;;18.70;97.00;;;;;;10484208;28;20437;-69
2023/08/07 05:23:10;;;;;;;5.97;3.83;;;18.70;97.00;;;;;;10483020;28;20414;-69
2023/08/07 05:28:14;;;;;;;6.38;3.90;;;18.70;97.00;;;;;;10490134;28;20999;-68
2023/08/07 05:33:15;;;;;;;5.57;3.28;;;18.70;97.00;;;;;;10480586;28;20469;-70
2023/08/07 05:38:16;;;;;;;5.10;3.70;;;18.70;97.00;;;;;;10488613;28;20891;-68
2023/08/07 05:43:17;;;;;;;5.93;3.73;;;18.70;97.00;;;;;;10495006;28;20415;-69
2023/08/07 05:48:17;;;;;;;7.07;3.80;;;18.70;97.00;;;;;;10482425;28;20934;-69
2023/08/07 05:53:19;;;;;;;7.22;4.05;;;18.70;97.00;;;;;;10490791;28;20406;-69
2023/08/07 05:58:20;;;;;;;5.47;3.67;;;18.70;96.90;;;;;;10481226;28;20422;-69
2023/08/07 06:03:28;;;;;;;5.60;3.70;;;18.80;96.90;;;;;;10475578;28;20827;-69
2023/08/07 06:08:29;;;;;;;7.53;4.00;;;18.70;96.80;;;;;;10477430;28;20415;-69
2023/08/07 06:13:29;;;;;;;6.35;3.72;;;18.80;96.90;;;;;;10483985;28;20418;-69
2023/08/07 06:18:30;;;;;;;6.03;3.70;;;18.80;96.90;;;;;;10483881;28;20413;-69
2023/08/07 06:23:30;;;;;;;7.90;4.03;;;18.80;96.90;;;;;;10487073;28;20433;-68
2023/08/07 06:28:33;;;;;;;6.17;3.90;;;18.80;97.10;;;;;;10477900;28;20403;-66
2023/08/07 06:33:34;;;;;;;6.63;4.10;;;18.80;97.00;;;;;;10482653;28;20917;-68
2023/08/07 06:38:34;;;;;;;6.23;3.60;;;18.80;96.90;;;;;;10492730;28;20415;-68
2023/08/07 06:43:35;;;;;;;6.97;3.90;;;18.80;97.00;;;;;;10492006;28;20495;-67
2023/08/07 06:48:36;;;;;;;8.33;4.03;;;18.80;97.00;;;;;;10494610;28;20925;-68
2023/08/07 06:53:36;;;;;;;6.33;3.90;;;18.80;96.90;;;;;;10491328;28;20970;-68
2023/08/07 06:58:37;;;;;;;7.30;4.20;;;18.80;96.80;;;;;;10488172;28;20413;-68
2023/08/07 07:03:37;;;;;;;6.18;3.90;;;18.80;96.70;;;;;;10497664;28;20815;-67
2023/08/07 07:08:39;;;;;;;7.32;3.97;;;18.90;96.80;;;;;;10478766;28;20409;-69
2023/08/07 07:13:41;;;;;;;8.52;3.80;;;18.80;96.70;;;;;;10486677;28;20508;-68
2023/08/07 07:18:42;;;;;;;5.13;3.65;;;18.80;96.60;;;;;;10478848;28;20411;-68
2023/08/07 07:23:42;;;;;;;8.13;4.50;;;18.90;96.70;;;;;;10489386;28;20935;-70
2023/08/07 07:28:43;;;;;;;8.17;4.50;;;18.90;96.60;;;;;;10486481;28;20404;-68
2023/08/07 07:33:44;;;;;;;8.68;4.05;;;18.90;96.70;;;;;;10491488;28;20437;-69
2023/08/07 07:38:48;;;;;;;6.80;4.07;;;18.90;96.70;;;;;;10485388;28;20415;-70
2023/08/07 07:43:48;;;;;;;8.00;3.97;;;18.90;96.70;;;;;;10488953;28;20417;-68
2023/08/07 07:48:49;;;;;;;7.35;4.00;;;19.00;96.70;;;;;;10487538;28;20593;-67
2023/08/07 07:53:50;;;;;;;8.93;4.28;;;18.80;96.60;;;;;;10486523;28;20415;-69
2023/08/07 07:58:51;;;;;;;6.70;3.83;;;18.90;96.70;;;;;;10486456;28;20585;-69
2023/08/07 08:03:52;;;;;;;7.60;4.18;;;18.90;96.70;;;;;;10482645;28;20410;-68
2023/08/07 08:08:53;;;;;;;8.88;4.10;;;18.90;96.60;;;;;;10488036;28;20492;-68
2023/08/07 08:13:53;;;;;;;6.67;4.30;;;19.00;96.60;;;;;;10486220;28;21156;-69
2023/08/07 08:18:54;;;;;;;6.43;3.70;;;19.00;96.50;;;;;;10490381;28;20540;-68
2023/08/07 08:23:54;;;;;;;6.70;4.20;;;18.80;96.50;;;;;;10498316;28;20414;-69
2023/08/07 08:28:55;;;;;;;6.13;3.90;;;19.00;96.50;;;;;;10485216;28;20994;-69
2023/08/07 08:33:55;;;;;;;6.67;4.10;;;19.00;96.50;;;;;;10481889;28;20416;-70
2023/08/07 08:38:56;;;;;;;9.07;4.28;;;19.00;96.50;;;;;;10471363;28;20817;-69
2023/08/07 08:43:59;;;;;;;6.85;4.35;;;19.00;96.40;;;;;;10478722;28;20773;-68
2023/08/07 08:49:02;;;;;;;7.18;4.30;;;19.10;96.40;;;;;;10489608;28;20409;-67
2023/08/07 08:54:03;;;;;;;8.07;4.33;;;19.10;96.40;;;;;;10489393;28;20406;-68
2023/08/07 08:59:04;;;;;;;7.63;4.07;;;19.10;96.40;;;;;;10488267;28;20819;-69
2023/08/07 09:04:05;;;;;;;8.07;4.15;;;19.20;96.40;;;;;;10479846;28;20417;-69
2023/08/07 09:09:08;;;;;;;7.70;4.30;;;19.20;96.40;;;;;;10475509;28;20421;-68
2023/08/07 09:14:10;;;;;;;9.38;4.68;;;19.10;96.40;;;;;;10484288;28;20416;-68
2023/08/07 09:19:10;;;;;;;6.80;4.07;;;19.20;96.40;;;;;;10474054;28;20458;-69
2023/08/07 09:24:11;;;;;;;8.95;4.20;;;19.20;96.30;;;;;;10482720;28;20505;-68
2023/08/07 09:29:12;;;;;;;8.30;4.30;;;19.20;96.30;;;;;;10471185;28;20917;-69
2023/08/07 09:34:16;;;;;;;6.72;3.85;;;19.30;96.20;;;;;;10481994;28;20409;-68
2023/08/07 09:39:23;;;;;;;8.65;3.90;;;19.20;96.20;;;;;;10472118;28;20404;-69
2023/08/07 09:44:35;;;;;;;8.68;3.92;;;19.30;96.20;;;;;;10479028;28;20429;-69
2023/08/07 09:49:36;;;;;;;7.70;3.00;;;19.40;96.00;;;;;;10471077;28;20949;-66
2023/08/07 09:54:37;;;;;;;6.97;3.70;;;19.30;95.40;;;;;;10495209;28;20414;-67
2023/08/07 09:59:38;;;;;;;10.10;4.07;;;20.50;95.90;;;;;;10483483;28;20395;-66
2023/08/07 10:04:39;;;;;;;8.93;4.00;;;19.30;95.40;;;;;;10487071;28;20464;-66
2023/08/07 10:09:42;;;;;;;8.75;4.10;;;19.30;95.50;;;;;;10490477;28;20427;-66
2023/08/07 10:14:42;;;;;;;8.20;4.28;;;19.40;95.50;;;;;;10482407;28;20413;-66
2023/08/07 10:19:43;;;;;;;7.40;4.00;;;19.40;95.70;;;;;;10477321;28;20880;-66
2023/08/07 10:24:48;;;;;;;9.50;4.00;;;19.40;95.40;;;;;;10475231;28;20411;-67
2023/08/07 10:29:51;;;;;;;6.55;2.50;;;19.50;95.40;;;;;;10475152;28;20424;-68
2023/08/07 10:34:52;;;;;;;6.77;2.40;;;19.40;93.70;;;;;;10476298;28;20508;-70
2023/08/07 10:40:04;;;;;;;6.28;2.10;;;19.20;93.90;;;;;;10481958;28;20398;-67
2023/08/07 10:45:05;;;;;;;6.55;1.90;;;19.20;93.50;;;;;;10480098;28;20474;-68
2023/08/07 10:50:06;;;;;;;5.30;1.95;;;19.10;92.60;;;;;;10483388;28;20920;-65
2023/08/07 10:55:17;;;;;;;5.40;2.20;;;18.90;92.70;;;;;;10483729;28;20409;-66
2023/08/07 11:00:25;;;;;;;8.50;2.53;;;19.10;92.90;;;;;;10480658;28;20494;-67
2023/08/07 11:05:26;;;;;;;6.73;2.40;;;19.10;93.10;;;;;;10488378;28;20468;-67
2023/08/07 11:10:27;;;;;;;6.18;2.20;;;19.20;93.30;;;;;;10490888;28;20610;-67
2023/08/07 11:15:27;;;;;;;4.57;2.13;;;19.40;93.30;;;;;;10483738;28;20414;-66
2023/08/07 11:20:28;;;;;;;5.75;2.08;;;19.40;93.30;;;;;;10480537;28;20749;-66
2023/08/07 11:25:29;;;;;;;8.00;2.50;;;19.50;93.50;;;;;;10468726;28;20413;-66
2023/08/07 11:30:31;;;;;;;7.87;2.10;;;19.60;93.50;;;;;;10486761;28;20452;-68
2023/08/07 11:35:31;;;;;;;6.40;2.00;;;19.60;91.70;;;;;;10485883;28;20416;-66
2023/08/07 11:40:32;;;;;;;6.25;2.00;;;19.60;90.70;;;;;;10487335;28;20792;-67
2023/08/07 11:45:32;;;;;;;8.15;2.13;;;19.60;90.50;;;;;;10482020;28;20419;-69
2023/08/07 11:50:34;;;;;;;6.95;1.90;;;19.70;90.60;;;;;;10482959;28;20405;-66
2023/08/07 11:55:34;;;;;;;5.73;1.80;;;19.80;89.20;;;;;;10491920;28;20408;-67
2023/08/07 12:00:35;;;;;;;9.25;1.70;;;19.80;90.00;;;;;;10488760;28;20432;-68
2023/08/07 12:05:40;;;;;;;5.05;1.60;;;19.70;87.10;;;;;;10493074;28;20500;-67
2023/08/07 12:10:41;;;;;;;4.82;1.60;;;19.50;87.60;;;;;;10487675;28;20422;-69
2023/08/07 12:15:42;;;;;;;6.05;1.90;;;19.60;87.30;;;;;;10490234;28;20448;-69
2023/08/07 12:20:43;;;;;;;10.80;3.38;;;19.60;87.20;;;;;;10483860;28;20445;-69
2023/08/07 12:25:44;;;;;;;5.00;1.80;;;19.70;87.90;;;;;;10489527;28;20507;-69
2023/08/07 12:30:46;;;;;;;6.47;1.88;;;19.80;87.50;;;;;;10487616;28;20442;-69
2023/08/07 12:35:47;;;;;;;7.30;1.80;;;19.90;87.30;;;;;;10477570;28;20804;-69
2023/08/07 12:40:47;;;;;;;5.07;1.58;;;19.90;86.80;;;;;;10483888;28;20412;-68
2023/08/07 12:45:48;;;;;;;5.50;2.00;;;20.00;87.90;;;;;;10485222;28;20412;-70
2023/08/07 12:50:49;;;;;;;7.13;1.77;;;19.90;88.40;;;;;;10477303;28;20502;-68
2023/08/07 12:55:49;;;;;;;5.03;1.80;;;19.80;88.10;;;;;;10483097;28;20417;-68
2023/08/07 13:00:50;;;;;;;7.00;2.17;;;19.70;88.80;;;;;;10481029;28;20412;-69
2023/08/07 13:05:50;;;;;;;6.57;2.00;;;19.50;90.00;;;;;;10489163;28;20422;-69
2023/08/07 13:10:51;;;;;;;6.20;2.00;;;19.30;90.30;;;;;;10482300;28;20415;-69
2023/08/07 13:15:52;;;;;;;5.97;2.00;;;19.00;91.70;;;;;;10489847;28;20494;-68
2023/08/07 13:20:53;;;;;;;4.50;1.83;;;18.90;93.60;;;;;;10477629;28;20435;-69
2023/08/07 13:25:54;;;;;;;7.03;2.17;;;18.90;93.70;;;;;;10474086;28;20761;-68
2023/08/07 13:30:56;;;;;;;4.13;1.85;;;19.00;93.90;;;;;;10476189;28;20835;-69
2023/08/07 13:35:56;;;;;;;4.40;2.00;;;19.10;94.00;;;;;;10475087;28;20476;-69
2023/08/07 13:40:57;;;;;;;6.55;2.47;;;19.20;93.90;;;;;;10477784;28;20409;-69
2023/08/07 13:45:58;;;;;;;5.55;2.25;;;19.20;94.00;;;;;;10479437;28;20608;-68
2023/08/07 13:50:59;;;;;;;6.67;2.83;;;19.30;93.90;;;;;;10470743;28;20514;-69
2023/08/07 13:55:59;;;;;;;5.97;2.30;;;19.30;93.90;;;;;;10474313;28;20426;-68
2023/08/07 14:01:00;;;;;;;5.20;2.38;;;19.40;93.90;;;;;;10483478;28;20405;-66
2023/08/07 14:06:01;;;;;;;7.20;2.80;;;19.40;94.00;;;;;;10487568;28;20506;-67
2023/08/07 14:11:02;;;;;;;5.23;2.40;;;19.50;94.00;;;;;;10488316;28;20494;-66
2023/08/07 14:16:03;;;;;;;6.32;2.60;;;19.60;93.90;;;;;;10483431;28;20856;-66
2023/08/07 14:21:04;;;;;;;6.53;2.50;;;19.60;93.80;;;;;;10493130;28;20650;-67
2023/08/07 14:26:05;;;;;;;5.43;2.70;;;19.80;93.80;;;;;;10484737;28;20405;-68
2023/08/07 14:31:09;;;;;;;5.57;2.70;;;19.70;93.70;;;;;;10483722;28;20413;-67
2023/08/07 14:36:09;;;;;;;6.17;2.33;;;19.80;93.60;;;;;;10485020;28;20510;-67
2023/08/07 14:41:10;;;;;;;4.50;2.70;;;19.90;93.60;;;;;;10485084;28;20414;-67
2023/08/07 14:46:11;;;;;;;5.45;2.85;;;19.90;93.50;;;;;;10480056;28;20408;-67
2023/08/07 14:51:11;;;;;;;6.60;2.70;;;19.90;93.50;;;;;;10476819;28;20460;-67
2023/08/07 14:56:12;;;;;;;4.90;2.50;;;20.00;93.40;;;;;;10484783;28;20803;-67
2023/08/07 15:01:12;;;;;;;4.05;2.60;;;20.00;93.40;;;;;;10499641;28;20415;-67
2023/08/07 15:06:13;;;;;;;4.32;2.40;;;20.10;93.20;;;;;;10477777;28;20416;-67
2023/08/07 15:11:14;;;;;;;5.50;2.80;;;20.10;93.20;;;;;;10480847;28;20417;-65
2023/08/07 15:16:15;;;;;;;5.50;2.50;;;20.10;93.00;;;;;;10481565;28;20405;-70
2023/08/07 15:21:15;;;;;;;6.93;1.83;;;20.20;92.60;;;;;;10483794;28;20449;-68
2023/08/07 15:26:16;;;;;;;4.73;1.80;;;20.00;90.00;;;;;;10480314;28;20402;-68
2023/08/07 15:31:17;;;;;;;4.37;1.90;;;19.80;89.30;;;;;;10475273;28;20841;-69
2023/08/07 15:36:18;;;;;;;6.30;1.70;;;19.60;88.50;;;;;;10493152;28;21104;-67
2023/08/07 15:41:18;;;;;;;4.65;1.60;;;19.50;88.90;;;;;;10479248;28;20453;-68
2023/08/07 15:46:19;;;;;;;5.38;2.00;;;19.40;88.60;;;;;;10482927;28;20464;-67
2023/08/07 15:51:21;;;;;;;3.95;1.60;;;19.40;88.20;;;;;;10483255;28;20410;-68
2023/08/07 15:56:21;;;;;;;4.00;1.50;;;19.20;88.40;;;;;;10486077;28;20406;-68
2023/08/07 16:01:22;;;;;;;5.83;1.60;;;19.00;88.50;;;;;;10491172;28;20399;-67
2023/08/07 16:06:23;;;;;;;4.97;1.70;;;19.80;89.20;;;;;;10496732;28;20902;-66
2023/08/07 16:11:23;;;;;;;3.80;1.60;;;18.90;89.10;;;;;;10479449;28;20409;-68
2023/08/07 16:16:24;;;;;;;4.25;1.40;;;18.90;89.30;;;;;;10475557;28;20409;-68
2023/08/07 16:21:25;;;;;;;3.15;1.38;;;18.90;89.20;;;;;;10483123;28;20414;-68
2023/08/07 16:26:25;;;;;;;3.67;1.27;;;18.90;86.90;;;;;;10484935;28;20409;-67
2023/08/07 16:31:27;;;;;;;2.53;1.20;;;19.00;85.40;;;;;;10490257;28;20986;-67
2023/08/07 16:36:27;;;;;;;4.28;1.20;;;19.00;85.30;;;;;;10485685;28;20417;-68
2023/08/07 16:41:28;;;;;;;3.83;1.10;;;19.00;85.00;;;;;;10487066;28;20403;-68
2023/08/07 16:46:29;;;;;;;3.67;1.40;;;19.10;84.30;;;;;;10487422;28;20410;-67
2023/08/07 16:51:32;;;;;;;3.17;1.17;;;19.00;84.20;;;;;;10489400;28;20406;-68
2023/08/07 16:56:32;;;;;;;3.58;1.10;;;19.00;84.50;;;;;;10478657;28;20474;-67
2023/08/07 17:01:33;;;;;;;2.40;1.00;;;18.90;83.80;;;;;;10490242;28;20463;-67
2023/08/07 17:06:34;;;;;;;3.13;1.00;;;18.80;83.20;;;;;;10493486;28;20976;-67
2023/08/07 17:11:35;;;;;;;2.63;1.20;;;18.70;84.70;;;;;;10482176;28;20465;-67
2023/08/07 17:16:35;;;;;;;2.50;1.20;;;18.60;84.20;;;;;;10480387;28;20427;-68
2023/08/07 17:21:36;;;;;;;4.23;1.30;;;18.50;84.40;;;;;;10482778;28;20406;-67
2023/08/07 17:26:37;;;;;;;3.93;1.40;;;18.40;85.10;;;;;;10487095;28;20762;-68
2023/08/07 17:31:37;;;;;;;4.80;1.70;;;18.40;85.50;;;;;;10496262;28;20410;-67
2023/08/07 17:36:38;;;;;;;7.17;1.40;;;18.40;85.20;;;;;;10475654;28;20412;-67
2023/08/07 17:41:39;;;;;;;3.93;1.27;;;18.40;84.60;;;;;;10482234;28;20464;-68
2023/08/07 17:46:40;;;;;;;4.20;1.40;;;18.40;85.20;;;;;;10473561;28;20426;-65
2023/08/07 17:51:40;;;;;;;5.13;1.60;;;18.50;86.40;;;;;;10486659;28;20453;-64
2023/08/07 17:56:41;;;;;;;3.80;1.60;;;18.70;86.80;;;;;;10492423;28;20411;-65
2023/08/07 18:01:41;;;;;;;5.30;1.73;;;18.80;87.30;;;;;;10494606;28;20400;-65
2023/08/07 18:06:42;;;;;;;4.10;2.00;;;18.90;87.20;;;;;;10485463;28;20409;-64
2023/08/07 18:11:43;;;;;;;3.87;1.90;;;19.10;87.20;;;;;;10462119;28;20408;-64
2023/08/07 18:16:43;;;;;;;3.90;1.55;;;19.10;87.10;;;;;;10465619;28;20803;-65
2023/08/07 18:21:45;;;;;;;3.53;1.55;;;19.10;87.20;;;;;;10475488;28;20459;-64
2023/08/07 18:26:46;;;;;;;4.63;2.20;;;19.20;87.50;;;;;;10474683;28;20407;-64
2023/08/07 18:31:47;;;;;;;4.47;1.90;;;19.20;87.60;;;;;;10491173;28;20955;-64
2023/08/07 18:36:47;;;;;;;4.32;1.85;;;19.20;87.90;;;;;;10482612;28;20425;-63
2023/08/07 18:41:48;;;;;;;4.15;1.70;;;19.20;88.10;;;;;;10484895;28;20455;-64
2023/08/07 18:46:49;;;;;;;4.22;2.03;;;19.20;88.20;;;;;;10482778;28;20432;-64
2023/08/07 18:51:49;;;;;;;3.27;1.83;;;19.30;88.40;;;;;;10488774;28;20406;-64
2023/08/07 18:56:52;;;;;;;3.70;1.80;;;19.20;88.50;;;;;;10479159;28;20438;-63
2023/08/07 19:01:53;;;;;;;3.55;1.98;;;19.20;88.70;;;;;;10482648;28;20493;-64
2023/08/07 19:06:53;;;;;;;5.07;1.90;;;19.20;88.80;;;;;;10494425;28;20399;-64
2023/08/07 19:11:54;;;;;;;3.00;1.80;;;19.20;89.00;;;;;;10475785;28;20916;-64
2023/08/07 19:16:54;;;;;;;3.13;1.87;;;19.20;89.10;;;;;;10484954;28;20436;-64
2023/08/07 19:21:55;;;;;;;4.07;1.97;;;19.20;89.30;;;;;;10468190;28;20401;-64
2023/08/07 19:26:56;;;;;;;3.20;2.10;;;19.20;89.30;;;;;;10489941;28;20963;-64
2023/08/07 19:31:56;;;;;;;2.97;1.90;;;19.20;89.30;;;;;;10481040;28;20405;-64
2023/08/07 19:36:57;;;;;;;3.05;1.83;;;19.20;89.40;;;;;;10483417;28;20924;-64
2023/08/07 19:41:58;;;;;;;4.20;2.10;;;19.70;89.70;;;;;;10483396;28;20392;-64
2023/08/07 19:46:59;;;;;;;4.65;2.40;;;19.10;89.50;;;;;;10478198;28;20910;-64
2023/08/07 19:52:00;;;;;;;5.32;2.70;;;19.10;89.60;;;;;;10471741;28;20405;-64
2023/08/07 19:57:01;;;;;;;4.35;2.38;;;19.10;89.60;;;;;;10478426;28;20433;-64
2023/08/07 20:02:02;;;;;;;3.88;2.17;;;19.10;89.70;;;;;;10473165;28;20407;-64
2023/08/07 20:07:04;;;;;;;3.33;2.07;;;19.10;89.90;;;;;;10483101;28;20421;-64
2023/08/07 20:12:06;;;;;;;4.20;2.10;;;19.00;90.00;;;;;;10475245;28;20415;-64
2023/08/07 20:17:06;;;;;;;4.05;2.10;;;19.00;90.00;;;;;;10485688;28;20443;-64
2023/08/07 20:22:07;;;;;;;3.37;2.03;;;19.00;90.10;;;;;;10487552;28;21151;-64
2023/08/07 20:27:08;;;;;;;4.10;2.40;;;19.00;90.20;;;;;;10484942;28;20526;-64
2023/08/07 20:32:09;;;;;;;4.47;2.23;;;19.00;90.30;;;;;;10483485;28;20418;-64
2023/08/07 20:37:10;;;;;;;3.92;2.22;;;19.00;90.40;;;;;;10482884;28;20406;-63
2023/08/07 20:42:10;;;;;;;2.90;2.00;;;18.90;90.40;;;;;;10476364;28;20496;-64
2023/08/07 20:47:11;;;;;;;4.10;2.20;;;19.00;90.50;;;;;;10481437;28;20804;-64
2023/08/07 20:52:11;;;;;;;4.23;2.20;;;18.90;90.50;;;;;;10484139;28;20399;-64
2023/08/07 20:57:12;;;;;;;3.90;2.30;;;18.90;90.60;;;;;;10481928;28;20437;-64
2023/08/07 21:02:13;;;;;;;3.30;2.13;;;18.90;90.60;;;;;;10478573;28;20405;-64
2023/08/07 21:07:13;;;;;;;3.10;2.03;;;18.90;90.70;;;;;;10473507;28;20410;-64
2023/08/07 21:12:14;;;;;;;3.03;2.00;;;18.90;90.70;;;;;;10475536;28;21623;-64
2023/08/07 21:17:14;;;;;;;4.00;2.20;;;18.90;90.70;;;;;;10484944;28;20419;-64
2023/08/07 21:22:15;;;;;;;4.17;2.20;;;18.80;90.70;;;;;;10477523;28;20649;-64
2023/08/07 21:27:16;;;;;;;3.03;2.10;;;18.80;90.80;;;;;;10476405;28;20408;-64
2023/08/07 21:32:17;;;;;;;2.93;1.93;;;18.80;90.80;;;;;;10482112;28;20780;-64
2023/08/07 21:37:18;;;;;;;3.83;2.40;;;18.80;90.80;;;;;;10482867;28;20414;-64
2023/08/07 21:42:18;;;;;;;4.97;2.60;;;18.80;90.90;;;;;;10478618;28;20395;-64
2023/08/07 21:47:19;;;;;;;3.72;2.22;;;18.80;90.90;;;;;;10474606;28;20490;-64
2023/08/07 21:52:20;;;;;;;3.47;2.33;;;18.80;91.00;;;;;;10482923;28;20433;-64
2023/08/07 21:57:21;;;;;;;3.87;2.13;;;18.80;91.00;;;;;;10480001;28;20421;-64
2023/08/07 22:02:21;;;;;;;3.57;2.40;;;18.80;91.00;;;;;;10480296;28;20775;-65
2023/08/07 22:07:22;;;;;;;2.87;2.30;;;18.70;91.10;;;;;;10481150;28;20632;-64
2023/08/07 22:12:22;;;;;;;3.60;2.40;;;18.70;91.10;;;;;;10489403;28;20509;-64
2023/08/07 22:17:23;;;;;;;4.20;2.40;;;18.80;91.10;;;;;;10472597;28;20781;-64
2023/08/07 22:22:29;;;;;;;3.40;2.30;;;18.70;91.10;;;;;;10485963;28;20494;-64
2023/08/07 22:27:29;;;;;;;3.25;2.20;;;18.70;91.10;;;;;;10483464;28;20402;-64
2023/08/07 22:32:31;;;;;;;4.00;2.50;;;18.70;91.20;;;;;;10487640;28;20548;-64
2023/08/07 22:37:32;;;;;;;3.20;2.33;;;18.70;91.20;;;;;;10482980;28;20424;-64
2023/08/07 22:42:32;;;;;;;3.10;2.20;;;18.70;91.20;;;;;;10475890;28;20430;-64
2023/08/07 22:47:33;;;;;;;3.87;2.37;;;18.70;91.30;;;;;;10472863;28;20848;-64
2023/08/07 22:52:33;;;;;;;3.53;2.40;;;18.70;91.30;;;;;;10482107;28;20399;-64
2023/08/07 22:57:34;;;;;;;2.80;2.30;;;18.60;91.30;;;;;;10475272;28;20914;-64
2023/08/07 23:02:35;;;;;;;3.67;2.60;;;18.60;91.30;;;;;;10468395;28;20986;-64
2023/08/07 23:07:36;;;;;;;3.20;2.40;;;18.60;91.40;;;;;;10486605;28;20446;-64
2023/08/07 23:12:36;;;;;;;3.60;2.90;;;18.60;91.40;;;;;;10487414;28;20413;-65
2023/08/07 23:17:37;;;;;;;3.83;2.80;;;18.60;91.50;;;;;;10468970;28;20418;-64
2023/08/07 23:22:37;;;;;;;3.27;2.80;;;18.60;91.50;;;;;;10490119;28;20398;-66
2023/08/07 23:27:38;;;;;;;3.43;2.70;;;18.50;91.50;;;;;;10495222;28;20396;-63
2023/08/07 23:32:41;;;;;;;2.63;2.40;;;18.60;91.50;;;;;;10497580;28;20396;-63
2023/08/07 23:37:41;;;;;;;3.88;2.83;;;18.50;91.50;;;;;;10494064;28;20492;-64
2023/08/07 23:42:42;;;;;;;3.17;2.70;;;18.50;91.60;;;;;;10496128;28;20471;-64
2023/08/07 23:47:43;;;;;;;4.80;3.00;;;18.50;91.60;;;;;;10491796;28;20536;-64
2023/08/07 23:52:43;;;;;;;4.93;3.17;;;18.50;91.60;;;;;;10481079;28;20409;-64
2023/08/07 23:57:44;;;;;;;3.87;3.13;;;17.90;91.50;;;;;;10493652;28;20416;-64
